Time;durP1;ratioP1;P1;durP2;ratioP2;P2;SDS_P1;SDS_P2;PMS_P1;PMS_P2;Temp;Humidity;BMP_temperature;BMP_pressure;BME280_temperature;BME280_humidity;BME280_pressure;Samples;Min_cycle;Max_cycle;Signal;HPM_P1;HPM_P2
2022/12/30 00:00:48;;;;;;;;;;;1.80;87.30;;;0.44;81.57;96804.94;5109564;28;19927;-80
2022/12/30 00:03:16;;;;;;;;;;;1.80;87.30;;;0.43;81.28;96801.38;5076054;28;20336;-80
2022/12/30 00:05:46;;;;;;;;;;;1.80;87.20;;;0.42;81.73;96806.97;5110111;28;19934;-80
2022/12/30 00:10:55;;;;;;;;;;;1.80;87.40;;;0.42;81.12;96802.41;5094841;28;20101;-80
2022/12/30 00:35:30;;;;;;;;;;;1.80;87.50;;;0.41;81.77;96816.09;5078020;28;20204;-80
2022/12/30 00:37:59;;;;;;;;;;;1.80;87.40;;;0.41;81.53;96818.78;5095777;28;19919;-80
2022/12/30 00:40:27;;;;;;;;;;;1.80;87.50;;;0.41;81.57;96832.25;5095499;28;19920;-80
2022/12/30 00:43:09;;;;;;;;;;;1.80;87.50;;;0.40;81.43;96828.69;5095623;28;19926;-80
2022/12/30 00:45:38;;;;;;;;;;;1.80;87.40;;;0.39;81.34;96815.44;5113300;28;20116;-80
2022/12/30 00:56:23;;;;;;;;;;;1.80;87.40;;;0.40;81.44;96800.94;5078496;28;19920;-80
2022/12/30 00:58:51;;;;;;;;;;;1.80;87.40;;;0.39;81.46;96823.50;5078526;28;19926;-80
2022/12/30 01:01:19;;;;;;;;;;;1.80;87.50;;;0.40;81.44;96819.81;5078375;28;19926;-80
2022/12/30 01:03:47;;;;;;;;;;;1.80;87.50;;;0.40;81.52;96819.81;5095058;28;19919;-80
2022/12/30 01:06:15;;;;;;;;;;;1.80;87.60;;;0.40;81.52;96814.41;5094911;28;19920;-80
2022/12/30 01:08:44;;;;;;;;;;;1.80;87.40;;;0.40;81.40;96814.41;5095667;28;19920;-80
2022/12/30 01:11:12;;;;;;;;;;;1.80;87.50;;;0.40;81.36;96814.41;5095005;28;19920;-80
2022/12/30 01:13:40;;;;;;;;;;;1.80;87.40;;;0.39;81.47;96810.88;5095083;28;19920;-80
2022/12/30 01:16:09;;;;;;;;;;;1.80;87.30;;;0.39;81.52;96801.97;5094621;28;19919;-80
2022/12/30 01:18:37;;;;;;;;;;;1.80;87.50;;;0.39;81.73;96808.19;5095013;28;19926;-80
2022/12/30 01:21:06;;;;;;;;;;;1.80;87.50;;;0.40;81.46;96800.94;5095029;28;19926;-80
2022/12/30 01:23:33;;;;;;;;;;;1.80;87.30;;;0.40;81.49;96798.25;5094942;28;19926;-80
2022/12/30 01:26:03;;;;;;;;;;;1.80;87.40;;;0.39;81.44;96800.09;5094604;28;20207;-80
2022/12/30 01:28:31;;;;;;;;;;;1.80;87.40;;;0.39;81.39;96807.34;5094932;28;19926;-80
2022/12/30 01:30:59;;;;;;;;;;;1.80;87.40;;;0.39;81.46;96797.41;5094532;28;20208;-80
2022/12/30 01:33:27;;;;;;;;;;;1.80;87.40;;;0.40;81.39;96806.34;5112635;28;19928;-80
2022/12/30 01:35:55;;;;;;;;;;;1.80;87.40;;;0.39;81.37;96796.59;5094565;28;19926;-80
2022/12/30 01:38:23;;;;;;;;;;;1.80;87.30;;;0.40;81.39;96798.25;5077943;28;20233;-80
2022/12/30 01:40:51;;;;;;;;;;;1.80;87.40;;;0.40;81.38;96803.63;5112591;28;20138;-80
2022/12/30 01:43:20;;;;;;;;;;;1.80;87.30;;;0.39;81.27;96791.19;5112816;28;19920;-80
2022/12/30 01:45:49;;;;;;;;;;;1.80;87.40;;;0.39;81.24;96796.59;5112341;28;19920;-80
2022/12/30 01:48:21;;;;;;;;;;;1.80;87.30;;;0.38;81.47;96801.16;5078037;28;19926;-80
2022/12/30 01:50:51;;;;;;;;;;;1.80;87.40;;;0.39;81.31;96801.97;5094591;28;19920;-80
2022/12/30 01:53:19;;;;;;;;;;;1.80;87.40;;;0.38;81.72;96797.59;5094377;28;19920;-80
2022/12/30 01:55:49;;;;;;;;;;;1.80;87.50;;;0.39;81.51;96807.34;5112096;28;20288;-80
2022/12/30 01:58:20;;;;;;;;;;;1.80;87.30;;;0.39;81.14;96810.06;5094830;28;19932;-80
2022/12/30 02:00:48;;;;;;;;;;;1.70;87.30;;;0.39;81.22;96807.34;5094404;28;20097;-80
2022/12/30 02:03:16;;;;;;;;;;;1.80;87.20;;;0.39;81.25;96799.28;5112559;28;19919;-80
2022/12/30 02:05:44;;;;;;;;;;;1.80;87.20;;;0.38;81.49;96794.91;5112086;28;19920;-80
2022/12/30 02:08:13;;;;;;;;;;;1.80;87.30;;;0.38;81.33;96789.53;5094610;28;19920;-80
2022/12/30 02:10:43;;;;;;;;;;;1.70;87.30;;;0.37;81.34;96786.00;5093987;28;19926;-80
2022/12/30 02:13:12;;;;;;;;;;;1.70;87.30;;;0.39;81.35;96799.28;5077563;28;19926;-80
2022/12/30 02:15:47;;;;;;;;;;;1.70;87.30;;;0.38;81.46;96800.28;5093800;28;19920;-80
2022/12/30 02:18:18;;;;;;;;;;;1.80;87.40;;;0.37;81.44;96795.94;5094489;28;19920;-80
2022/12/30 02:21:12;;;;;;;;;;;1.70;87.40;;;0.38;81.22;96790.38;5077180;28;19926;-80
2022/12/30 02:23:53;;;;;;;;;;;1.70;87.30;;;0.36;81.51;96792.41;5111905;28;19926;-80
2022/12/30 02:26:44;;;;;;;;;;;1.70;87.30;;;0.36;81.56;96783.50;5093819;28;19919;-80
2022/12/30 02:29:28;;;;;;;;;;;1.70;87.20;;;0.37;81.60;96788.72;5061085;28;19926;-80
2022/12/30 02:31:58;;;;;;;;;;;1.70;87.20;;;0.38;81.46;96790.38;5094264;28;20120;-80
2022/12/30 02:34:31;;;;;;;;;;;1.70;87.30;;;0.38;81.31;96786.84;5076884;28;19939;-80
2022/12/30 02:37:04;;;;;;;;;;;1.70;87.30;;;0.37;81.14;96783.31;5110624;28;19919;-80
2022/12/30 02:39:33;;;;;;;;;;;1.70;87.20;;;0.37;81.53;96791.41;5094081;28;20190;-80
2022/12/30 02:44:51;;;;;;;;;;;1.70;87.40;;;0.37;81.50;96782.47;5111284;28;19919;-80
2022/12/30 02:47:22;;;;;;;;;;;1.70;87.30;;;0.37;81.26;96785.16;5076803;28;19920;-80
2022/12/30 02:52:37;;;;;;;;;;;1.70;87.20;;;0.37;81.61;96787.84;5092566;28;19919;-80
2022/12/30 02:55:06;;;;;;;;;;;1.70;87.40;;;0.37;81.32;96788.72;5103847;28;20218;-80
2022/12/30 02:57:34;;;;;;;;;;;1.70;87.30;;;0.37;81.13;96788.72;5093807;28;19920;-80
2022/12/30 03:06:30;;;;;;;;;;;1.70;87.40;;;0.37;81.33;96787.84;5045062;28;19943;-80
2022/12/30 03:09:02;;;;;;;;;;;1.70;87.30;;;0.37;81.55;96777.09;5016349;28;19927;-80
2022/12/30 03:11:35;;;;;;;;;;;1.70;87.40;;;0.36;81.50;96775.41;5070674;28;19920;-80
2022/12/30 03:14:05;;;;;;;;;;;1.70;87.20;;;0.36;81.57;96772.72;5092898;28;19926;-80
2022/12/30 03:16:34;;;;;;;;;;;1.70;87.30;;;0.36;81.45;96780.78;5110949;28;19926;-80
2022/12/30 03:19:06;;;;;;;;;;;1.70;87.20;;;0.36;81.53;96786.19;5127299;28;19952;-80
2022/12/30 03:21:36;;;;;;;;;;;1.70;87.40;;;0.36;81.49;96780.78;5110144;28;19926;-80
2022/12/30 03:27:04;;;;;;;;;;;1.70;87.20;;;0.35;81.69;96782.66;5109726;28;19926;-80
2022/12/30 03:29:35;;;;;;;;;;;1.70;87.20;;;0.36;81.45;96783.50;5095053;28;19920;-80
2022/12/30 03:32:03;;;;;;;;;;;1.70;87.30;;;0.36;81.28;96783.50;5110312;28;19927;-80
2022/12/30 03:34:32;;;;;;;;;;;1.70;87.20;;;0.36;81.54;96784.34;5109908;28;19926;-80
2022/12/30 03:37:03;;;;;;;;;;;1.70;87.30;;;0.35;81.60;96785.38;5092663;28;19919;-80
2022/12/30 03:39:33;;;;;;;;;;;1.70;87.20;;;0.35;81.16;96785.38;5110126;28;20229;-81
2022/12/30 03:42:01;;;;;;;;;;;1.70;87.30;;;0.35;81.44;96779.13;5113514;28;20104;-80
2022/12/30 03:44:28;;;;;;;;;;;1.70;87.40;;;0.36;81.61;96787.03;5096472;28;19934;-80
2022/12/30 03:46:56;;;;;;;;;;;1.70;87.30;;;0.36;81.16;96796.97;5096111;28;19919;-80
2022/12/30 03:49:24;;;;;;;;;;;1.70;87.20;;;0.36;81.47;96794.25;5113623;28;19920;-80
2022/12/30 03:51:53;;;;;;;;;;;1.70;87.30;;;0.35;81.41;96788.06;5114678;28;19955;-80
2022/12/30 03:54:21;;;;;;;;;;;1.70;87.30;;;0.35;81.42;96800.66;5096193;28;19926;-80
2022/12/30 03:56:49;;;;;;;;;;;1.70;87.30;;;0.35;81.30;96787.22;5095261;28;19926;-80
2022/12/30 03:59:17;;;;;;;;;;;1.70;87.40;;;0.34;81.38;96794.47;5114121;28;19919;-80
2022/12/30 04:01:45;;;;;;;;;;;1.70;87.30;;;0.36;81.26;96796.97;5114420;28;19920;-80
2022/12/30 04:04:13;;;;;;;;;;;1.70;87.30;;;0.35;81.39;96795.28;5095971;28;19920;-80
2022/12/30 04:06:41;;;;;;;;;;;1.70;87.30;;;0.35;81.30;96801.53;5114041;28;19919;-80
2022/12/30 04:09:10;;;;;;;;;;;1.70;87.30;;;0.35;81.35;96806.91;5113467;28;19919;-80
2022/12/30 04:11:38;;;;;;;;;;;1.70;87.40;;;0.35;81.39;96806.06;5114323;28;19920;-80
2022/12/30 04:14:06;;;;;;;;;;;1.70;87.30;;;0.34;81.12;96805.25;5113124;28;19920;-80
2022/12/30 04:16:34;;;;;;;;;;;1.70;87.30;;;0.34;81.55;96809.78;5112554;28;19920;-80
2022/12/30 04:19:02;;;;;;;;;;;1.70;87.30;;;0.34;81.21;96802.53;5113337;28;19926;-80
2022/12/30 04:21:30;;;;;;;;;;;1.70;87.10;;;0.34;81.19;96807.94;5114495;28;19920;-80
2022/12/30 04:23:57;;;;;;;;;;;1.70;87.20;;;0.34;81.31;96804.38;5113029;28;19926;-80
2022/12/30 04:26:27;;;;;;;;;;;1.70;87.30;;;0.34;81.57;96804.38;5113658;28;19920;-80
2022/12/30 04:28:54;;;;;;;;;;;1.70;87.40;;;0.34;81.52;96813.31;5114249;28;20111;-80
2022/12/30 04:31:22;;;;;;;;;;;1.70;87.30;;;0.35;81.46;96808.75;5113942;28;19920;-80
2022/12/30 04:33:50;;;;;;;;;;;1.70;87.40;;;0.34;81.20;96809.78;5113862;28;19920;-80
2022/12/30 04:36:18;;;;;;;;;;;1.70;87.40;;;0.33;81.58;96810.78;5113605;28;19920;-80
2022/12/30 04:38:46;;;;;;;;;;;1.70;87.20;;;0.33;81.48;96803.56;5095872;28;19920;-80
2022/12/30 04:41:14;;;;;;;;;;;1.70;87.40;;;0.33;81.49;96810.78;5112572;28;19934;-80
2022/12/30 04:43:44;;;;;;;;;;;1.70;87.30;;;0.33;81.54;96818.88;5095513;28;20212;-80
2022/12/30 04:46:12;;;;;;;;;;;1.70;87.30;;;0.33;81.22;96822.41;5111900;28;19926;-80
2022/12/30 04:48:39;;;;;;;;;;;1.70;87.40;;;0.34;81.63;96824.09;5113723;28;19949;-81
2022/12/30 04:51:07;;;;;;;;;;;1.70;87.40;;;0.33;81.55;96819.72;5112468;28;20085;-80
2022/12/30 04:53:35;;;;;;;;;;;1.70;87.40;;;0.33;81.34;96814.34;5111692;28;19927;-80
2022/12/30 04:56:03;;;;;;;;;;;1.70;87.40;;;0.33;81.48;96814.34;5113217;28;19920;-80
2022/12/30 04:58:31;;;;;;;;;;;1.70;87.30;;;0.32;81.23;96812.66;5112409;28;19920;-80
2022/12/30 05:01:00;;;;;;;;;;;1.70;87.30;;;0.32;81.49;96815.38;5112483;28;20230;-80
2022/12/30 05:03:28;;;;;;;;;;;1.70;87.30;;;0.32;81.37;96809.97;5113492;28;20219;-82
2022/12/30 05:05:56;;;;;;;;;;;1.70;87.30;;;0.32;81.34;96811.84;5112812;28;20141;-80
2022/12/30 05:08:24;;;;;;;;;;;1.70;87.30;;;0.33;81.55;96824.25;5113519;28;20190;-80
2022/12/30 05:10:52;;;;;;;;;;;1.70;87.40;;;0.33;81.20;96818.88;5113419;28;19927;-80
2022/12/30 05:13:20;;;;;;;;;;;1.70;87.40;;;0.33;81.33;96824.25;5112175;28;20230;-80
2022/12/30 05:15:48;;;;;;;;;;;1.70;87.30;;;0.32;81.24;96825.31;5111709;28;19920;-80
2022/12/30 05:18:17;;;;;;;;;;;1.70;87.30;;;0.32;81.50;96831.53;5113475;28;19920;-80
2022/12/30 05:20:45;;;;;;;;;;;1.70;87.20;;;0.32;81.24;96822.63;5111924;28;19920;-81
2022/12/30 05:28:40;;;;;;;;;;;1.70;87.30;;;0.32;81.26;96822.63;5112134;28;19919;-80
2022/12/30 05:31:08;;;;;;;;;;;1.70;87.40;;;0.33;81.54;96826.94;5111865;28;20123;-80
2022/12/30 05:33:37;;;;;;;;;;;1.70;87.40;;;0.32;81.45;96828.81;5113021;28;19920;-80
2022/12/30 05:36:06;;;;;;;;;;;1.70;87.40;;;0.31;81.33;96829.84;5112578;28;20204;-80
2022/12/30 05:38:34;;;;;;;;;;;1.70;87.40;;;0.31;81.52;96832.53;5111909;28;19926;-80
2022/12/30 05:41:02;;;;;;;;;;;1.70;87.40;;;0.31;81.40;96832.53;5111822;28;19919;-80
2022/12/30 05:43:30;;;;;;;;;;;1.70;87.40;;;0.30;81.42;96826.34;5111443;28;19919;-81
2022/12/30 05:45:58;;;;;;;;;;;1.70;87.40;;;0.31;81.40;96821.78;5111103;28;19920;-80
2022/12/30 05:48:26;;;;;;;;;;;1.70;87.40;;;0.31;81.53;96829.84;5094774;28;19920;-80
2022/12/30 05:50:55;;;;;;;;;;;1.70;87.30;;;0.30;81.45;96823.66;5112647;28;19934;-80
2022/12/30 05:53:23;;;;;;;;;;;1.70;87.30;;;0.32;81.38;96822.63;5094435;28;19920;-80
2022/12/30 05:55:52;;;;;;;;;;;1.70;87.40;;;0.31;81.38;96821.78;5111145;28;20135;-80
2022/12/30 05:58:20;;;;;;;;;;;1.70;87.40;;;0.30;81.24;96823.66;5111471;28;19926;-80
2022/12/30 06:00:48;;;;;;;;;;;1.70;87.30;;;0.30;81.46;96818.25;5111272;28;19920;-80
2022/12/30 06:03:16;;;;;;;;;;;1.60;87.20;;;0.30;81.31;96810.19;5112461;28;19924;-80
2022/12/30 06:05:44;;;;;;;;;;;1.70;87.30;;;0.30;81.41;96810.19;5109827;28;19923;-80
2022/12/30 06:08:14;;;;;;;;;;;1.70;87.40;;;0.31;81.51;96811.00;5111109;28;19927;-80
2022/12/30 06:10:42;;;;;;;;;;;1.70;87.40;;;0.30;81.41;96809.31;5112327;28;19919;-81
2022/12/30 06:13:09;;;;;;;;;;;1.70;87.40;;;0.31;81.42;96816.38;5111048;28;19920;-80
2022/12/30 06:15:37;;;;;;;;;;;1.70;87.40;;;0.30;81.41;96823.66;5112076;28;20250;-80
2022/12/30 06:18:05;;;;;;;;;;;1.70;87.40;;;0.30;81.36;96820.94;5112234;28;19920;-80
2022/12/30 06:20:34;;;;;;;;;;;1.70;87.40;;;0.29;81.27;96824.66;5111165;28;19920;-80
2022/12/30 06:23:02;;;;;;;;;;;1.70;87.40;;;0.30;81.44;96815.56;5112273;28;19920;-81
2022/12/30 06:25:32;;;;;;;;;;;1.70;87.40;;;0.30;81.43;96820.94;5111582;28;19920;-80
2022/12/30 06:28:00;;;;;;;;;;;1.70;87.40;;;0.30;81.54;96820.94;5094384;28;19920;-80
2022/12/30 06:30:28;;;;;;;;;;;1.70;87.40;;;0.31;81.34;96824.47;5110961;28;19920;-80
2022/12/30 06:32:56;;;;;;;;;;;1.70;87.50;;;0.29;81.49;96835.44;5112175;28;19927;-80
2022/12/30 06:35:24;;;;;;;;;;;1.70;87.40;;;0.29;81.33;96827.34;5110571;28;19920;-82
2022/12/30 06:37:52;;;;;;;;;;;1.70;87.40;;;0.30;81.22;96839.81;5111072;28;20119;-80
2022/12/30 06:40:20;;;;;;;;;;;1.70;87.40;;;0.32;81.36;96839.59;5112252;28;20212;-81
2022/12/30 06:42:49;;;;;;;;;;;1.70;87.30;;;0.30;81.33;96837.09;5110665;28;19926;-80
2022/12/30 06:45:17;;;;;;;;;;;1.70;87.30;;;0.31;81.34;96843.31;5111372;28;20211;-81
2022/12/30 06:47:45;;;;;;;;;;;1.70;87.20;;;0.30;81.31;96839.81;5094772;28;19920;-81
2022/12/30 06:50:13;;;;;;;;;;;1.70;87.20;;;0.29;81.22;96832.75;5110495;28;20108;-81
2022/12/30 06:52:41;;;;;;;;;;;1.70;87.30;;;0.32;81.37;96841.47;5110559;28;19921;-81
2022/12/30 06:55:09;;;;;;;;;;;1.70;87.30;;;0.30;81.26;96853.28;5110109;28;19927;-80
2022/12/30 06:57:37;;;;;;;;;;;1.70;87.30;;;0.30;81.43;96852.41;5112320;28;19920;-81
2022/12/30 07:00:08;;;;;;;;;;;1.70;87.30;;;0.32;81.37;96857.63;5110617;28;19942;-80
2022/12/30 07:02:36;;;;;;;;;;;1.70;87.30;;;0.30;81.48;96858.66;5111593;28;19927;-80
2022/12/30 07:05:04;;;;;;;;;;;1.70;87.30;;;0.30;81.38;96847.88;5110171;28;19920;-80
2022/12/30 07:07:32;;;;;;;;;;;1.70;87.30;;;0.32;81.45;96854.94;5127658;28;19920;-80
2022/12/30 07:10:00;;;;;;;;;;;1.70;87.30;;;0.32;81.50;96854.94;5111685;28;19920;-80
2022/12/30 07:12:28;;;;;;;;;;;1.70;87.40;;;0.32;81.37;96857.63;5093429;28;19920;-80
2022/12/30 07:14:56;;;;;;;;;;;1.70;87.30;;;0.32;81.50;96849.56;5110782;28;19934;-80
2022/12/30 07:17:25;;;;;;;;;;;1.70;87.20;;;0.32;81.19;96849.56;5113250;28;19920;-80
2022/12/30 07:19:53;;;;;;;;;;;1.70;87.20;;;0.31;81.26;96851.41;5114207;28;19923;-80
2022/12/30 07:22:21;;;;;;;;;;;1.70;87.20;;;0.31;81.11;96846.00;5114033;28;19919;-80
2022/12/30 07:24:49;;;;;;;;;;;1.70;87.20;;;0.32;81.25;96849.56;5113290;28;20229;-80
2022/12/30 07:27:16;;;;;;;;;;;1.70;87.20;;;0.32;81.14;96855.75;5096781;28;19920;-80
2022/12/30 07:29:44;;;;;;;;;;;1.70;87.20;;;0.32;81.38;96860.31;5114010;28;20238;-80
2022/12/30 07:32:12;;;;;;;;;;;1.70;87.20;;;0.32;81.43;96852.25;5113813;28;20237;-81
2022/12/30 07:34:42;;;;;;;;;;;1.70;87.20;;;0.31;81.34;96856.78;5114512;28;19919;-80
2022/12/30 07:37:10;;;;;;;;;;;1.70;87.30;;;0.30;81.22;96864.03;5113723;28;19920;-81
2022/12/30 07:39:38;;;;;;;;;;;1.70;87.20;;;0.32;81.14;96865.72;5113773;28;20238;-81
2022/12/30 07:42:06;;;;;;;;;;;1.70;87.10;;;0.31;81.08;96859.47;5113738;28;19920;-81
2022/12/30 07:44:34;;;;;;;;;;;1.70;87.20;;;0.31;81.18;96867.56;5113783;28;19926;-80
2022/12/30 07:47:01;;;;;;;;;;;1.70;87.20;;;0.32;81.47;96871.09;5112959;28;19920;-80
2022/12/30 07:49:32;;;;;;;;;;;1.70;87.30;;;0.32;81.46;96874.63;5114602;28;19920;-80
2022/12/30 07:52:02;;;;;;;;;;;1.70;87.20;;;0.33;81.22;96883.50;5114599;28;19920;-80
2022/12/30 07:54:30;;;;;;;;;;;1.70;87.10;;;0.32;81.19;96881.88;5096168;28;19941;-80
2022/12/30 07:56:58;;;;;;;;;;;1.70;87.10;;;0.32;81.17;96881.88;5096030;28;19920;-80
2022/12/30 07:59:25;;;;;;;;;;;1.70;87.20;;;0.33;81.27;96894.28;5096458;28;19926;-80
2022/12/30 08:01:53;;;;;;;;;;;1.70;87.10;;;0.33;81.09;96894.28;5096324;28;20215;-80
2022/12/30 08:04:21;;;;;;;;;;;1.70;87.10;;;0.32;81.37;96898.03;5096295;28;19920;-80
2022/12/30 08:06:49;;;;;;;;;;;1.70;87.10;;;0.33;81.13;96905.91;5113926;28;19919;-80
2022/12/30 08:09:18;;;;;;;;;;;1.70;87.10;;;0.32;81.40;96912.31;5114441;28;19928;-81
2022/12/30 08:11:46;;;;;;;;;;;1.70;87.10;;;0.33;81.08;96908.59;5114361;28;19919;-81
2022/12/30 08:14:15;;;;;;;;;;;1.70;87.00;;;0.33;81.12;96899.66;5112793;28;19935;-81
2022/12/30 08:16:42;;;;;;;;;;;1.70;87.10;;;0.33;81.14;96913.13;5114077;28;20248;-81
2022/12/30 08:19:10;;;;;;;;;;;1.70;87.00;;;0.33;81.16;96913.13;5114122;28;20100;-81
2022/12/30 08:21:38;;;;;;;;;;;1.70;87.00;;;0.32;81.13;96914.19;5112982;28;19997;-81
2022/12/30 08:24:07;;;;;;;;;;;1.70;87.10;;;0.32;81.02;96912.31;5113937;28;19919;-80
2022/12/30 08:26:36;;;;;;;;;;;1.70;87.00;;;0.34;80.97;96917.50;5113620;28;19946;-81
2022/12/30 08:29:04;;;;;;;;;;;1.70;86.90;;;0.33;81.05;96921.22;5094920;28;19920;-81
2022/12/30 08:31:33;;;;;;;;;;;1.70;87.00;;;0.34;81.03;96922.88;5130133;28;19920;-81
2022/12/30 08:34:01;;;;;;;;;;;1.70;87.00;;;0.34;81.27;96917.50;5112601;28;19920;-81
2022/12/30 08:36:29;;;;;;;;;;;1.70;87.00;;;0.33;81.31;96915.81;5095545;28;19926;-81
2022/12/30 08:39:00;;;;;;;;;;;1.70;87.00;;;0.33;80.98;96914.00;5112897;28;20134;-81
2022/12/30 08:41:45;;;;;;;;;;;1.70;87.00;;;0.34;81.23;96917.50;5113472;28;20130;-81
2022/12/30 08:44:13;;;;;;;;;;;1.70;86.90;;;0.35;81.15;96914.63;5112374;28;19920;-81
2022/12/30 08:46:41;;;;;;;;;;;1.70;86.90;;;0.33;81.12;96916.69;5112178;28;19920;-81
2022/12/30 08:49:10;;;;;;;;;;;1.70;86.90;;;0.35;81.00;96925.41;5112522;28;19926;-81
2022/12/30 08:51:38;;;;;;;;;;;1.70;86.90;;;0.35;80.91;96919.19;5095425;28;19926;-81
2022/12/30 08:54:06;;;;;;;;;;;1.70;87.00;;;0.35;81.10;96913.78;5095354;28;19919;-80
2022/12/30 08:56:35;;;;;;;;;;;1.70;87.00;;;0.35;81.40;96916.47;5113266;28;20203;-81
2022/12/30 08:59:04;;;;;;;;;;;1.70;86.80;;;0.35;81.25;96919.19;5112355;28;20134;-81
2022/12/30 09:01:33;;;;;;;;;;;1.70;86.90;;;0.35;81.30;96913.78;5113381;28;19926;-81
2022/12/30 09:04:03;;;;;;;;;;;1.70;86.90;;;0.36;80.96;96923.53;5095278;28;19920;-81
2022/12/30 09:06:31;;;;;;;;;;;1.70;86.90;;;0.36;81.05;96916.31;5095035;28;19919;-81
2022/12/30 09:08:59;;;;;;;;;;;1.70;86.80;;;0.37;80.90;96911.75;5113547;28;19919;-81
2022/12/30 09:11:29;;;;;;;;;;;1.70;86.80;;;0.37;80.74;96917.13;5112249;28;19926;-81
2022/12/30 09:13:57;;;;;;;;;;;1.70;86.70;;;0.37;81.05;96911.75;5112086;28;19926;-81
2022/12/30 09:16:27;;;;;;;;;;;1.80;86.60;;;0.36;81.04;96902.84;5112880;28;19919;-80
2022/12/30 09:18:55;;;;;;;;;;;1.70;86.70;;;0.38;81.02;96902.66;5112269;28;20207;-81
2022/12/30 09:21:23;;;;;;;;;;;1.80;86.60;;;0.38;80.78;96899.94;5112085;28;19920;-81
2022/12/30 09:23:51;;;;;;;;;;;1.80;86.60;;;0.39;80.78;96904.31;5113656;28;19926;-81
2022/12/30 09:26:20;;;;;;;;;;;1.80;86.60;;;0.36;80.91;96899.31;5120591;28;19926;-81
2022/12/30 09:28:48;;;;;;;;;;;1.70;86.60;;;0.36;80.85;96902.84;5112416;28;19920;-81
2022/12/30 09:31:16;;;;;;;;;;;1.70;86.60;;;0.38;80.97;96894.56;5113116;28;20123;-81
2022/12/30 09:33:45;;;;;;;;;;;1.80;86.60;;;0.37;80.94;96895.59;5112834;28;19920;-81
2022/12/30 09:36:13;;;;;;;;;;;1.70;86.60;;;0.37;80.76;96891.06;5112714;28;19926;-81
2022/12/30 09:38:41;;;;;;;;;;;1.80;86.60;;;0.36;80.88;96889.38;5112789;28;19928;-81
2022/12/30 09:45:05;;;;;;;;;;;1.70;86.50;;;0.36;80.54;96893.91;5050757;28;19926;-81
2022/12/30 09:47:34;;;;;;;;;;;1.70;86.40;;;0.36;80.71;96893.91;5094448;28;19930;-81
2022/12/30 09:50:07;;;;;;;;;;;1.70;86.40;;;0.37;80.57;96879.44;5112750;28;19920;-81
2022/12/30 09:52:37;;;;;;;;;;;1.70;86.50;;;0.36;80.87;96883.13;5111742;28;19953;-81
2022/12/30 09:55:06;;;;;;;;;;;1.70;86.50;;;0.36;80.90;96875.06;5112203;28;19939;-82
2022/12/30 09:57:35;;;;;;;;;;;1.70;86.50;;;0.36;80.65;96883.13;5112746;28;20226;-81
2022/12/30 10:00:08;;;;;;;;;;;1.70;86.50;;;0.36;80.60;96880.44;5111605;28;20371;-81
2022/12/30 10:03:12;;;;;;;;;;;1.70;86.50;;;0.35;80.82;96882.31;5111947;28;19920;-81
2022/12/30 10:05:53;;;;;;;;;;;1.70;86.60;;;0.35;80.78;96876.09;5113209;28;19920;-81
2022/12/30 10:08:32;;;;;;;;;;;1.70;86.50;;;0.36;80.52;96888.53;5112507;28;19920;-81
2022/12/30 10:11:04;;;;;;;;;;;1.70;86.50;;;0.35;80.58;96882.31;5112622;28;19926;-81
2022/12/30 10:13:34;;;;;;;;;;;1.70;86.50;;;0.35;80.73;96878.78;5112703;28;19920;-81
2022/12/30 10:16:05;;;;;;;;;;;1.70;86.50;;;0.34;81.06;96877.09;5110951;28;19919;-81
2022/12/30 10:18:49;;;;;;;;;;;1.70;86.60;;;0.35;80.83;96881.47;5111304;28;20229;-81
2022/12/30 10:21:25;;;;;;;;;;;1.70;86.60;;;0.36;80.60;96888.53;5094088;28;19919;-81
2022/12/30 10:23:59;;;;;;;;;;;1.70;86.60;;;0.35;80.84;96886.84;5093934;28;19920;-81
2022/12/30 10:26:28;;;;;;;;;;;1.70;86.60;;;0.35;80.85;96876.09;5093551;28;20127;-81
2022/12/30 10:28:57;;;;;;;;;;;1.70;86.60;;;0.35;80.81;96868.84;5111174;28;19924;-82
2022/12/30 10:31:27;;;;;;;;;;;1.70;86.60;;;0.35;80.69;96868.84;5110968;28;19927;-81
2022/12/30 10:33:55;;;;;;;;;;;1.70;86.60;;;0.34;80.57;96867.19;5111839;28;20097;-81
2022/12/30 10:36:28;;;;;;;;;;;1.70;86.60;;;0.35;80.75;96873.38;5110386;28;20123;-81
2022/12/30 10:38:58;;;;;;;;;;;1.70;86.60;;;0.35;80.82;96876.09;5093862;28;19919;-81
2022/12/30 10:41:33;;;;;;;;;;;1.70;86.60;;;0.35;80.79;96865.31;5093838;28;19932;-81
2022/12/30 10:44:07;;;;;;;;;;;1.70;86.60;;;0.34;80.58;96867.19;5093961;28;19926;-81
2022/12/30 10:46:45;;;;;;;;;;;1.70;86.50;;;0.34;80.85;96864.50;5110446;28;20116;-81
2022/12/30 10:49:30;;;;;;;;;;;1.70;86.50;;;0.34;80.69;96864.50;5093781;28;19919;-81
2022/12/30 10:51:59;;;;;;;;;;;1.70;86.50;;;0.35;80.82;96859.94;5093250;28;19927;-81
2022/12/30 10:54:27;;;;;;;;;;;1.70;86.60;;;0.35;80.63;96859.94;5110447;28;19926;-81
2022/12/30 10:56:55;;;;;;;;;;;1.70;86.50;;;0.35;80.76;96857.22;5111496;28;19919;-82
2022/12/30 10:59:25;;;;;;;;;;;1.70;86.50;;;0.35;80.78;96854.53;5111900;28;19926;-81
2022/12/30 11:01:55;;;;;;;;;;;1.70;86.50;;;0.35;80.77;96859.94;5110614;28;19920;-82
2022/12/30 11:04:33;;;;;;;;;;;1.70;86.50;;;0.34;80.70;96848.31;5110383;28;19926;-81
2022/12/30 11:07:06;;;;;;;;;;;1.70;86.50;;;0.34;80.37;96853.72;5094800;28;19920;-81
2022/12/30 11:15:49;;;;;;;;;;;1.70;86.60;;;0.34;80.78;96840.25;5111165;28;19927;-81
2022/12/30 11:18:19;;;;;;;;;;;1.70;86.60;;;0.35;80.67;96841.06;5110111;28;20122;-81
2022/12/30 11:20:49;;;;;;;;;;;1.70;86.50;;;0.34;80.58;96837.56;5110354;28;20215;-81
2022/12/30 11:23:29;;;;;;;;;;;1.70;86.50;;;0.34;80.69;96839.41;5109990;28;19920;-81
2022/12/30 11:25:57;;;;;;;;;;;1.70;86.40;;;0.35;80.70;96841.06;5093017;28;20101;-81
2022/12/30 11:28:26;;;;;;;;;;;1.70;86.40;;;0.33;80.60;96841.28;5110404;28;19920;-81
2022/12/30 11:30:59;;;;;;;;;;;1.70;86.40;;;0.33;80.48;96843.97;5110306;28;19920;-81
2022/12/30 11:33:28;;;;;;;;;;;1.70;86.40;;;0.33;80.64;96840.41;5110203;28;20127;-81
2022/12/30 11:36:10;;;;;;;;;;;1.70;86.40;;;0.34;80.71;96836.72;5092582;28;20208;-81
2022/12/30 11:38:39;;;;;;;;;;;1.70;86.40;;;0.33;80.74;96830.50;5110493;28;19920;-81
2022/12/30 11:41:27;;;;;;;;;;;1.70;86.50;;;0.34;80.65;96834.88;5110011;28;20114;-81
2022/12/30 11:44:13;;;;;;;;;;;1.70;86.50;;;0.34;80.68;96842.09;5093152;28;19926;-81
2022/12/30 11:46:43;;;;;;;;;;;1.70;86.50;;;0.35;80.70;96841.06;5109501;28;20096;-81
2022/12/30 11:49:22;;;;;;;;;;;1.70;86.40;;;0.35;80.67;96839.22;5110013;28;19919;-81
2022/12/30 11:51:54;;;;;;;;;;;1.70;86.40;;;0.35;80.58;96843.75;5110015;28;19924;-81
2022/12/30 11:54:27;;;;;;;;;;;1.70;86.50;;;0.35;80.76;96841.06;5093461;28;19920;-81
2022/12/30 11:57:03;;;;;;;;;;;1.70;86.50;;;0.35;80.51;96841.06;5109866;28;19920;-81
2022/12/30 11:59:32;;;;;;;;;;;1.70;86.40;;;0.35;80.52;96849.16;5110042;28;19926;-81
2022/12/30 12:02:16;;;;;;;;;;;1.70;86.40;;;0.35;80.65;96849.16;5111687;28;20211;-81
2022/12/30 12:04:44;;;;;;;;;;;1.70;86.40;;;0.33;80.59;96845.81;5113129;28;19920;-81
2022/12/30 12:07:32;;;;;;;;;;;1.70;86.40;;;0.34;80.65;96852.88;5113219;28;19926;-81
2022/12/30 12:10:10;;;;;;;;;;;1.70;86.40;;;0.34;80.60;96847.47;5113380;28;19926;-81
2022/12/30 12:12:54;;;;;;;;;;;1.70;86.30;;;0.32;80.43;96844.16;5096593;28;19926;-81
2022/12/30 12:15:26;;;;;;;;;;;1.70;86.40;;;0.34;80.66;96852.88;5095703;28;20211;-81
2022/12/30 12:17:57;;;;;;;;;;;1.70;86.40;;;0.33;80.61;96859.28;5113155;28;20112;-81
2022/12/30 12:20:34;;;;;;;;;;;1.70;86.30;;;0.34;80.54;96858.25;5096350;28;19920;-81
2022/12/30 12:23:14;;;;;;;;;;;1.70;86.40;;;0.32;80.56;96853.06;5114408;28;19919;-81
2022/12/30 12:25:53;;;;;;;;;;;1.70;86.40;;;0.33;80.51;96854.75;5112695;28;19926;-81
2022/12/30 12:28:21;;;;;;;;;;;1.70;87.10;;;0.33;80.55;96862.81;5112914;28;19927;-81
2022/12/30 12:31:09;;;;;;;;;;;1.70;86.30;;;0.32;80.61;96861.16;5113077;28;19920;-81
2022/12/30 12:33:41;;;;;;;;;;;1.70;86.30;;;0.32;80.41;96863.00;5095770;28;20216;-81
2022/12/30 12:36:16;;;;;;;;;;;1.70;86.30;;;0.33;80.60;96859.28;5113497;28;19934;-81
2022/12/30 12:38:53;;;;;;;;;;;1.70;86.40;;;0.32;80.74;96852.25;5112831;28;19920;-81
2022/12/30 12:41:36;;;;;;;;;;;1.70;86.40;;;0.31;80.49;96862.16;5112718;28;19919;-81
2022/12/30 12:44:31;;;;;;;;;;;1.70;86.40;;;0.31;80.58;96856.78;5112250;28;19919;-81
2022/12/30 12:47:05;;;;;;;;;;;1.70;86.40;;;0.32;80.57;96860.31;5113295;28;19927;-81
2022/12/30 12:50:01;;;;;;;;;;;1.70;86.40;;;0.30;80.65;96858.66;5112459;28;19926;-81
2022/12/30 12:52:34;;;;;;;;;;;1.70;86.40;;;0.30;80.60;96869.44;5111979;28;19919;-81